createdAt,value
2023-05-17T00:01:06.547Z,48.00
2023-05-17T00:04:08.270Z,48.02
2023-05-17T00:07:09.839Z,47.93
2023-05-17T00:10:11.603Z,47.81
2023-05-17T00:13:13.184Z,48.11
2023-05-17T00:16:14.793Z,47.95
2023-05-17T00:19:16.593Z,47.90
2023-05-17T00:22:18.293Z,47.88
2023-05-17T00:25:19.871Z,48.10
2023-05-17T00:28:21.496Z,47.99
2023-05-17T00:31:23.089Z,48.04
2023-05-17T00:34:24.762Z,48.01
2023-05-17T00:37:26.359Z,48.02
2023-05-17T00:40:27.991Z,47.85
2023-05-17T00:43:29.592Z,47.86
2023-05-17T00:46:31.262Z,47.88
2023-05-17T00:49:33.026Z,47.84
2023-05-17T00:52:36.132Z,47.93
2023-05-17T00:55:37.945Z,48.03
2023-05-17T00:58:40.828Z,47.76
2023-05-17T01:01:43.572Z,47.99
2023-05-17T01:04:45.293Z,48.03
2023-05-17T01:07:46.891Z,47.91
2023-05-17T01:11:10.063Z,48.03
2023-05-17T01:14:14.677Z,47.95
2023-05-17T01:17:37.868Z,48.19
2023-05-17T01:20:45.369Z,48.27
2023-05-17T01:24:09.912Z,48.33
2023-05-17T01:27:14.669Z,47.97
2023-05-17T01:30:19.704Z,48.39
2023-05-17T01:33:21.610Z,48.21
2023-05-17T01:36:23.415Z,48.33
2023-05-17T01:39:25.374Z,48.41
2023-05-17T01:42:32.788Z,48.39
2023-05-17T01:45:44.263Z,48.29
2023-05-17T01:48:56.405Z,48.22
2023-05-17T01:52:07.594Z,48.30
2023-05-17T01:55:26.061Z,48.50
2023-05-17T01:58:30.723Z,48.44
2023-05-17T02:01:32.864Z,48.44
2023-05-17T02:04:36.142Z,48.34
2023-05-17T02:07:37.853Z,48.49
2023-05-17T02:10:39.911Z,48.56
2023-05-17T02:13:41.490Z,48.49
2023-05-17T02:16:43.078Z,48.40
2023-05-17T02:19:44.654Z,48.43
2023-05-17T02:22:46.418Z,48.39
2023-05-17T02:25:48.084Z,48.56
2023-05-17T02:28:49.681Z,48.49
2023-05-17T02:31:51.324Z,48.56
2023-05-17T02:34:52.911Z,48.48
2023-05-17T02:37:54.463Z,48.39
2023-05-17T02:40:56.107Z,48.34
2023-05-17T02:43:57.746Z,48.42
2023-05-17T02:46:59.382Z,48.32
2023-05-17T02:50:01.247Z,48.38
2023-05-17T02:53:02.872Z,48.41
2023-05-17T02:56:04.612Z,48.39
2023-05-17T02:59:06.198Z,48.37
2023-05-17T03:02:07.967Z,48.21
2023-05-17T03:05:10.104Z,48.26
2023-05-17T03:08:11.823Z,48.26
2023-05-17T03:11:13.462Z,48.32
2023-05-17T03:14:15.068Z,48.38
2023-05-17T03:17:16.615Z,48.34
2023-05-17T03:20:18.479Z,48.33
2023-05-17T03:23:20.113Z,48.32
2023-05-17T03:26:23.077Z,48.37
2023-05-17T03:29:24.719Z,48.30
2023-05-17T03:32:26.380Z,48.37
2023-05-17T03:35:28.213Z,48.31
2023-05-17T03:38:30.111Z,48.10
2023-05-17T03:41:32.245Z,48.08
2023-05-17T03:44:33.811Z,48.20
2023-05-17T03:47:35.460Z,48.33
2023-05-17T03:50:37.173Z,48.09
2023-05-17T03:53:43.176Z,48.02
2023-05-17T03:56:47.423Z,48.27
2023-05-17T03:59:49.145Z,48.24
2023-05-17T04:02:52.133Z,48.04
2023-05-17T04:05:53.858Z,48.16
2023-05-17T04:08:55.747Z,48.09
2023-05-17T04:11:57.523Z,47.89
2023-05-17T04:14:59.336Z,48.11
2023-05-17T04:18:01.076Z,47.92
2023-05-17T04:21:03.453Z,47.98
2023-05-17T04:24:05.305Z,47.86
2023-05-17T04:27:07.314Z,47.88
2023-05-17T04:30:09.362Z,48.01
2023-05-17T04:33:12.713Z,47.74
2023-05-17T04:36:15.965Z,48.04
2023-05-17T04:39:18.243Z,47.95
2023-05-17T04:42:19.802Z,47.95
2023-05-17T04:45:21.435Z,47.87
2023-05-17T04:48:23.161Z,48.09
2023-05-17T04:51:24.864Z,48.05
2023-05-17T04:54:27.265Z,48.18
2023-05-17T04:57:28.865Z,48.08
2023-05-17T05:00:30.455Z,47.93
2023-05-17T05:03:32.062Z,48.01
2023-05-17T05:06:34.528Z,48.05
2023-05-17T05:09:36.111Z,48.03
2023-05-17T05:12:37.954Z,48.16
2023-05-17T05:15:39.562Z,47.87
2023-05-17T05:18:41.249Z,48.03
2023-05-17T05:21:46.152Z,48.01
2023-05-17T05:24:47.789Z,48.03
2023-05-17T05:27:49.432Z,48.10
2023-05-17T05:30:51.123Z,47.97
2023-05-17T05:33:52.726Z,47.97
2023-05-17T05:36:54.356Z,48.00
2023-05-17T05:39:55.898Z,48.02
2023-05-17T05:42:57.539Z,48.08
2023-05-17T05:45:59.123Z,47.89
2023-05-17T05:49:00.852Z,47.78
2023-05-17T05:52:02.765Z,47.65
2023-05-17T05:55:04.976Z,47.93
2023-05-17T05:58:06.550Z,48.01
2023-05-17T06:01:08.284Z,47.73
2023-05-17T06:04:10.005Z,47.71
2023-05-17T06:07:12.335Z,47.50
2023-05-17T06:10:14.168Z,47.41
2023-05-17T06:13:15.873Z,47.55
2023-05-17T06:16:17.777Z,47.59
2023-05-17T06:19:20.386Z,47.68
2023-05-17T06:22:22.182Z,47.61
2023-05-17T06:25:23.851Z,47.46
2023-05-17T06:28:26.443Z,47.63
2023-05-17T06:31:28.058Z,47.62
2023-05-17T06:34:29.631Z,47.53
2023-05-17T06:37:32.096Z,47.59
2023-05-17T06:40:33.871Z,47.63
2023-05-17T06:43:37.107Z,47.64
2023-05-17T06:46:39.409Z,47.50
2023-05-17T06:49:41.207Z,47.86
2023-05-17T06:52:42.769Z,47.63
2023-05-17T06:55:44.635Z,47.55
2023-05-17T06:58:46.218Z,47.59
2023-05-17T07:01:48.004Z,47.40
2023-05-17T07:04:49.822Z,47.37
2023-05-17T07:07:51.471Z,47.33
2023-05-17T07:10:53.562Z,47.31
2023-05-17T07:13:55.138Z,47.20
2023-05-17T07:16:56.688Z,47.26
2023-05-17T07:19:58.507Z,47.15
2023-05-17T07:23:00.300Z,47.12
2023-05-17T07:26:01.925Z,47.30
2023-05-17T07:29:03.688Z,47.28
2023-05-17T07:32:05.650Z,47.15
2023-05-17T07:35:07.599Z,47.07
2023-05-17T07:38:10.802Z,47.13
2023-05-17T07:41:13.934Z,46.86
2023-05-17T07:44:15.548Z,46.91
2023-05-17T07:47:18.295Z,46.84
2023-05-17T07:50:20.062Z,47.00
2023-05-17T07:53:21.827Z,46.67
2023-05-17T07:56:23.636Z,46.83
2023-05-17T07:59:25.541Z,46.93
2023-05-17T08:02:27.142Z,46.84
2023-05-17T08:05:28.982Z,46.72
2023-05-17T08:08:30.807Z,46.80
2023-05-17T08:11:35.167Z,46.77
2023-05-17T08:14:36.976Z,46.68
2023-05-17T08:17:38.628Z,47.08
2023-05-17T08:20:40.305Z,46.60
2023-05-17T08:23:42.125Z,46.64
2023-05-17T08:26:44.711Z,46.61
2023-05-17T08:29:47.424Z,46.69
2023-05-17T08:32:49.166Z,46.53
2023-05-17T08:35:52.860Z,46.36
2023-05-17T08:38:54.629Z,46.48
2023-05-17T08:41:59.601Z,46.47
2023-05-17T08:45:01.357Z,46.62
2023-05-17T08:48:03.475Z,46.68
2023-05-17T08:51:06.361Z,46.72
2023-05-17T08:54:08.636Z,46.70
2023-05-17T08:57:11.827Z,46.78
2023-05-17T09:00:19.602Z,46.59
2023-05-17T09:03:22.638Z,46.73
2023-05-17T09:06:24.582Z,46.60
2023-05-17T09:09:26.796Z,46.62
2023-05-17T09:12:28.374Z,46.77
2023-05-17T09:15:34.166Z,46.82
2023-05-17T09:18:35.979Z,46.62
2023-05-17T09:21:38.063Z,46.73
2023-05-17T09:24:41.558Z,46.77
2023-05-17T09:27:43.154Z,46.53
2023-05-17T09:30:44.786Z,46.66
2023-05-17T09:33:48.484Z,46.55
2023-05-17T09:36:51.445Z,46.53
2023-05-17T09:39:55.152Z,46.43
2023-05-17T09:42:58.176Z,46.41
2023-05-17T09:45:59.845Z,46.58
2023-05-17T09:49:03.452Z,46.33
2023-05-17T09:52:08.079Z,46.61
2023-05-17T09:55:11.865Z,46.50
2023-05-17T09:58:14.177Z,46.56
2023-05-17T10:01:17.686Z,46.38
2023-05-17T10:04:23.302Z,46.42
2023-05-17T10:07:26.686Z,46.48
2023-05-17T10:10:30.095Z,46.40
2023-05-17T10:13:42.228Z,46.39
2023-05-17T10:16:45.609Z,46.39
2023-05-17T10:19:47.845Z,46.40
2023-05-17T10:22:50.538Z,46.32
2023-05-17T10:25:52.390Z,46.18
2023-05-17T10:29:00.741Z,46.34
2023-05-17T10:32:10.597Z,46.40
2023-05-17T10:35:15.489Z,46.33
2023-05-17T10:38:19.139Z,46.27
2023-05-17T10:41:24.432Z,46.26
2023-05-17T10:44:26.552Z,46.12
2023-05-17T10:47:34.630Z,46.26
2023-05-17T10:50:54.043Z,45.97
2023-05-17T10:54:20.857Z,46.10
2023-05-17T11:00:42.408Z,46.02
2023-05-17T11:03:44.370Z,45.75
2023-05-17T11:06:46.127Z,45.71
2023-05-17T11:09:56.441Z,45.73
2023-05-17T11:12:58.149Z,45.74
2023-05-17T11:16:05.070Z,45.76
2023-05-17T11:19:09.328Z,45.85
2023-05-17T11:22:12.335Z,45.89
2023-05-17T11:25:14.735Z,45.93
2023-05-17T11:28:22.381Z,45.81
2023-05-17T11:31:35.998Z,45.89
2023-05-17T11:34:38.594Z,45.83
2023-05-17T11:37:44.200Z,45.74
2023-05-17T11:40:47.792Z,45.82
2023-05-17T11:43:50.010Z,45.50
2023-05-17T11:46:53.302Z,45.57
2023-05-17T11:49:56.726Z,45.60
2023-05-17T11:53:00.329Z,45.49
2023-05-17T11:56:06.046Z,45.39
2023-05-17T11:59:07.751Z,45.58
2023-05-17T12:02:10.043Z,45.49
2023-05-17T12:05:12.546Z,45.43
2023-05-17T12:08:18.938Z,45.52
2023-05-17T12:11:21.934Z,45.29
2023-05-17T12:14:24.559Z,45.38
2023-05-17T12:17:35.407Z,45.44
2023-05-17T12:20:39.073Z,45.40
2023-05-17T12:23:47.860Z,45.44
2023-05-17T12:26:50.688Z,45.31
2023-05-17T12:29:52.407Z,45.23
2023-05-17T12:32:54.414Z,45.41
2023-05-17T12:35:56.381Z,45.33
2023-05-17T12:38:58.317Z,45.29
2023-05-17T12:42:01.345Z,45.32
2023-05-17T12:45:03.258Z,45.26
2023-05-17T12:48:05.375Z,45.26
2023-05-17T12:51:15.376Z,45.24
2023-05-17T12:54:28.139Z,45.21
2023-05-17T12:57:30.221Z,45.04
2023-05-17T13:00:32.025Z,45.02
2023-05-17T13:03:35.056Z,45.01
2023-05-17T13:06:50.133Z,45.12
2023-05-17T13:09:51.938Z,45.01
2023-05-17T13:13:00.533Z,45.10
2023-05-17T13:16:02.734Z,44.94
2023-05-17T13:19:15.415Z,44.87
2023-05-17T13:22:17.473Z,44.91
2023-05-17T13:25:19.650Z,44.95
2023-05-17T13:28:21.318Z,44.79
2023-05-17T13:31:22.970Z,44.77
2023-05-17T13:34:24.737Z,44.86
2023-05-17T13:37:26.558Z,44.86
2023-05-17T13:40:28.400Z,45.00
2023-05-17T13:43:30.364Z,44.79
2023-05-17T13:46:32.155Z,44.66
2023-05-17T13:49:33.888Z,44.79
2023-05-17T13:52:35.560Z,44.90
2023-05-17T13:55:39.594Z,44.69
2023-05-17T13:58:41.593Z,44.75
2023-05-17T14:01:43.898Z,44.70
2023-05-17T14:04:45.596Z,44.78
2023-05-17T14:07:47.321Z,44.80
2023-05-17T14:10:49.048Z,44.69
2023-05-17T14:13:51.081Z,44.79
2023-05-17T14:16:52.745Z,44.77
2023-05-17T14:19:55.053Z,44.79
2023-05-17T14:22:56.780Z,44.77
2023-05-17T14:25:58.448Z,44.75
2023-05-17T14:29:00.307Z,44.75
2023-05-17T14:32:02.050Z,44.66
2023-05-17T14:35:04.358Z,44.79
2023-05-17T14:38:06.184Z,44.64
2023-05-17T14:41:08.072Z,44.57
2023-05-17T14:44:09.724Z,44.63
2023-05-17T14:47:11.635Z,44.59
2023-05-17T14:50:13.262Z,44.66
2023-05-17T14:53:14.953Z,44.61
2023-05-17T14:56:16.935Z,44.59
2023-05-17T14:59:18.687Z,44.57
2023-05-17T15:02:20.391Z,44.69
2023-05-17T15:05:22.225Z,44.78
2023-05-17T15:08:24.087Z,44.86
2023-05-17T15:11:25.790Z,44.62
2023-05-17T15:14:27.476Z,44.41
2023-05-17T15:17:29.207Z,44.43
2023-05-17T15:20:31.401Z,44.49
2023-05-17T15:23:33.119Z,44.76
2023-05-17T15:26:34.951Z,44.69
2023-05-17T15:29:38.925Z,44.51
2023-05-17T15:32:40.999Z,44.47
2023-05-17T15:35:43.382Z,44.81
2023-05-17T15:38:45.143Z,44.72
2023-05-17T15:41:46.834Z,44.72
2023-05-17T15:44:48.504Z,44.68
2023-05-17T15:47:50.695Z,44.72
2023-05-17T15:50:52.636Z,44.67
2023-05-17T15:53:55.162Z,44.62
2023-05-17T15:56:56.887Z,44.71
2023-05-17T15:59:58.536Z,44.60
2023-05-17T16:03:00.649Z,44.59
2023-05-17T16:06:04.430Z,44.60
2023-05-17T16:09:06.219Z,44.61
2023-05-17T16:12:08.217Z,44.60
2023-05-17T16:15:10.388Z,44.69
2023-05-17T16:18:14.972Z,44.58
2023-05-17T16:21:16.933Z,44.71
2023-05-17T16:24:19.299Z,44.56
2023-05-17T16:27:21.883Z,44.75
2023-05-17T16:30:24.016Z,44.45
2023-05-17T16:33:25.948Z,44.54
2023-05-17T16:36:27.912Z,44.64
2023-05-17T16:39:29.717Z,44.66
2023-05-17T16:42:31.698Z,44.59
2023-05-17T16:45:33.659Z,44.63
2023-05-17T16:48:35.320Z,44.66
2023-05-17T16:51:37.050Z,44.68
2023-05-17T16:54:38.800Z,44.75
2023-05-17T16:57:42.132Z,44.57
2023-05-17T17:00:43.794Z,44.82
2023-05-17T17:03:45.642Z,44.54
2023-05-17T17:06:47.652Z,44.76
2023-05-17T17:09:49.299Z,44.74
2023-05-17T17:12:51.018Z,44.65
2023-05-17T17:15:53.171Z,44.58
2023-05-17T17:18:54.987Z,44.59
2023-05-17T17:21:56.680Z,44.69
2023-05-17T17:24:58.357Z,44.74
2023-05-17T17:27:59.998Z,44.69
2023-05-17T17:31:01.580Z,44.56
2023-05-17T17:34:03.148Z,44.75
2023-05-17T17:37:04.973Z,44.60
2023-05-17T17:40:08.059Z,44.58
2023-05-17T17:43:09.693Z,44.54
2023-05-17T17:46:12.146Z,44.52
2023-05-17T17:49:13.844Z,44.49
2023-05-17T17:52:15.494Z,44.55
2023-05-17T17:55:17.140Z,44.47
2023-05-17T17:58:18.758Z,44.41
2023-05-17T18:01:20.451Z,44.50
2023-05-17T18:04:22.139Z,44.46
2023-05-17T18:07:23.777Z,44.44
2023-05-17T18:10:25.538Z,44.39
2023-05-17T18:13:27.211Z,44.41
2023-05-17T18:16:28.912Z,44.38
2023-05-17T18:19:30.711Z,44.44
2023-05-17T18:22:33.154Z,44.48
2023-05-17T18:25:35.194Z,44.54
2023-05-17T18:28:42.281Z,44.43
2023-05-17T18:31:44.497Z,44.52
2023-05-17T18:34:46.168Z,44.44
2023-05-17T18:37:47.812Z,44.49
2023-05-17T18:40:49.582Z,44.50
2023-05-17T18:43:51.185Z,44.47
2023-05-17T18:46:53.965Z,44.63
2023-05-17T18:49:55.817Z,44.57
2023-05-17T18:52:57.467Z,44.64
2023-05-17T18:56:02.655Z,44.63
2023-05-17T18:59:05.161Z,44.61
2023-05-17T19:02:07.820Z,44.59
2023-05-17T19:05:09.511Z,44.67
2023-05-17T19:08:11.221Z,44.54
2023-05-17T19:11:12.818Z,44.48
2023-05-17T19:14:15.077Z,44.64
2023-05-17T19:17:17.072Z,44.51
2023-05-17T19:20:19.050Z,44.48
2023-05-17T19:23:21.434Z,44.49
2023-05-17T19:26:23.042Z,44.46
2023-05-17T19:29:24.894Z,44.43
2023-05-17T19:32:27.048Z,44.36
2023-05-17T19:35:28.778Z,44.48
2023-05-17T19:38:31.286Z,44.42
2023-05-17T19:41:32.859Z,44.18
2023-05-17T19:44:34.444Z,44.42
2023-05-17T19:47:36.006Z,44.18
2023-05-17T19:50:37.773Z,44.20
2023-05-17T19:53:51.462Z,44.18
2023-05-17T19:56:54.950Z,44.09
2023-05-17T19:59:56.532Z,44.27
2023-05-17T20:02:58.282Z,44.02
2023-05-17T20:05:59.957Z,44.12
2023-05-17T20:09:01.948Z,44.09
2023-05-17T20:12:04.094Z,43.98
2023-05-17T20:15:06.399Z,44.17
2023-05-17T20:18:09.224Z,44.00
2023-05-17T20:21:12.876Z,44.00
2023-05-17T20:24:14.587Z,44.07
2023-05-17T20:27:16.227Z,44.03
2023-05-17T20:30:17.857Z,44.08
2023-05-17T20:33:26.260Z,43.99
2023-05-17T20:36:28.887Z,44.00
2023-05-17T20:39:31.136Z,44.16
2023-05-17T20:42:32.761Z,44.18
2023-05-17T20:45:34.480Z,44.10
2023-05-17T20:48:36.786Z,43.97
2023-05-17T20:51:39.085Z,44.39
2023-05-17T20:54:40.715Z,44.25
2023-05-17T20:57:42.334Z,44.10
2023-05-17T21:00:43.947Z,44.16
2023-05-17T21:03:45.854Z,44.09
2023-05-17T21:06:47.593Z,44.17
2023-05-17T21:09:49.212Z,44.33
2023-05-17T21:12:50.919Z,44.26
2023-05-17T21:15:56.393Z,44.12
2023-05-17T21:18:58.072Z,44.11
2023-05-17T21:21:59.690Z,44.10
2023-05-17T21:25:01.259Z,44.14
2023-05-17T21:28:03.037Z,44.24
2023-05-17T21:31:04.827Z,44.20
2023-05-17T21:34:06.449Z,44.13
2023-05-17T21:37:08.000Z,44.30
2023-05-17T21:40:10.366Z,44.25
2023-05-17T21:43:12.064Z,44.15
2023-05-17T21:46:13.758Z,44.25
2023-05-17T21:49:15.523Z,44.17
2023-05-17T21:52:17.804Z,44.18
2023-05-17T21:55:19.515Z,44.23
2023-05-17T21:58:21.323Z,44.27
2023-05-17T22:01:24.248Z,44.15
2023-05-17T22:04:26.342Z,44.31
2023-05-17T22:07:28.056Z,44.25
2023-05-17T22:10:30.590Z,44.31
2023-05-17T22:13:32.724Z,44.10
2023-05-17T22:16:35.967Z,44.32
2023-05-17T22:19:40.690Z,44.22
2023-05-17T22:22:43.025Z,44.48
2023-05-17T22:25:44.725Z,44.52
2023-05-17T22:28:46.484Z,44.38
2023-05-17T22:31:50.254Z,44.57
2023-05-17T22:34:52.940Z,44.44
2023-05-17T22:37:54.863Z,44.54
2023-05-17T22:40:56.596Z,44.31
2023-05-17T22:43:58.216Z,44.72
2023-05-17T22:47:02.464Z,44.69
2023-05-17T22:50:05.099Z,44.71
2023-05-17T22:53:06.873Z,44.83
2023-05-17T22:56:08.562Z,44.84
2023-05-17T22:59:10.256Z,45.05
2023-05-17T23:02:12.444Z,44.88
2023-05-17T23:05:14.386Z,44.75
2023-05-17T23:08:16.419Z,45.13
2023-05-17T23:11:18.154Z,44.86
2023-05-17T23:14:21.771Z,44.90
2023-05-17T23:17:24.124Z,44.93
2023-05-17T23:20:26.619Z,45.04
2023-05-17T23:23:30.008Z,45.03
2023-05-17T23:26:34.018Z,45.49
2023-05-17T23:29:36.286Z,45.38
2023-05-17T23:32:37.958Z,45.41
2023-05-17T23:35:39.610Z,45.27
2023-05-17T23:38:41.217Z,45.15
2023-05-17T23:41:43.136Z,45.20
2023-05-17T23:44:46.530Z,45.31
2023-05-17T23:47:50.209Z,45.29
2023-05-17T23:50:51.958Z,45.29
2023-05-17T23:53:53.536Z,45.23
2023-05-17T23:56:55.907Z,45.30
2023-05-17T23:59:57.494Z,45.16
